Time;durP1;ratioP1;P1;durP2;ratioP2;P2;SDS_P1;SDS_P2;PMS_P1;PMS_P2;Temp;Humidity;BMP_temperature;BMP_pressure;BME280_temperature;BME280_humidity;BME280_pressure;Samples;Min_cycle;Max_cycle;Signal;HPM_P1;HPM_P2
2022/05/20 00:01:29;;;;;;;4.88;2.90;;;21.80;99.90;;;;;;5111724;28;20201;-75
2022/05/20 00:03:54;;;;;;;3.88;2.80;;;21.70;99.90;;;;;;5111769;28;20225;-76
2022/05/20 00:06:20;;;;;;;3.65;2.72;;;21.70;99.90;;;;;;5111846;28;20267;-75
2022/05/20 00:08:45;;;;;;;3.53;2.55;;;21.60;99.90;;;;;;5110809;28;20202;-75
2022/05/20 00:11:11;;;;;;;4.85;2.60;;;21.70;99.90;;;;;;5125672;22;20553;-72
2022/05/20 00:13:36;;;;;;;3.22;2.40;;;21.60;99.90;;;;;;5093410;28;20216;-73
2022/05/20 00:16:02;;;;;;;2.80;2.53;;;21.60;99.90;;;;;;5111797;28;20197;-73
2022/05/20 00:18:28;;;;;;;6.75;2.88;;;21.50;99.90;;;;;;5092532;28;20207;-74
2022/05/20 00:20:55;;;;;;;3.65;2.20;;;21.20;99.90;;;;;;5111734;28;20198;-73
2022/05/20 00:23:21;;;;;;;4.03;2.72;;;21.30;99.90;;;;;;5094601;28;20735;-73
2022/05/20 00:25:46;;;;;;;10.55;3.08;;;21.20;99.90;;;;;;5091812;28;20174;-73
2022/05/20 00:28:20;;;;;;;5.25;3.05;;;21.30;99.90;;;;;;5090691;28;20291;-72
2022/05/20 00:30:47;;;;;;;4.13;2.90;;;21.30;99.90;;;;;;5091218;28;20636;-73
2022/05/20 00:33:13;;;;;;;3.28;2.42;;;21.30;99.90;;;;;;5091852;28;20299;-73
2022/05/20 00:35:39;;;;;;;5.82;2.90;;;21.20;99.90;;;;;;5091049;28;20297;-72
2022/05/20 00:38:05;;;;;;;3.45;2.83;;;21.10;99.90;;;;;;5090943;28;20198;-73
2022/05/20 00:40:31;;;;;;;3.72;2.47;;;21.20;99.90;;;;;;5073013;28;20206;-73
2022/05/20 00:43:29;;;;;;;3.97;3.15;;;21.20;99.90;;;;;;5088680;28;20222;-73
2022/05/20 00:46:01;;;;;;;5.47;2.67;;;21.20;99.90;;;;;;5090997;28;20190;-73
2022/05/20 00:48:28;;;;;;;4.15;2.60;;;21.10;99.90;;;;;;5089480;28;20725;-72
2022/05/20 00:51:06;;;;;;;2.85;2.58;;;21.10;99.90;;;;;;5072852;28;20303;-73
2022/05/20 00:53:38;;;;;;;4.95;2.78;;;21.10;99.90;;;;;;5090883;28;20541;-74
2022/05/20 00:56:07;;;;;;;6.00;2.72;;;20.80;99.90;;;;;;5091898;28;20167;-73
2022/05/20 00:58:32;;;;;;;4.13;2.47;;;20.90;99.90;;;;;;5071981;28;20202;-72
2022/05/20 01:01:01;;;;;;;3.53;2.53;;;20.90;99.90;;;;;;5072669;28;20258;-73
2022/05/20 01:03:30;;;;;;;4.95;3.05;;;20.80;99.90;;;;;;5090758;28;20210;-73
2022/05/20 01:05:57;;;;;;;2.88;2.58;;;20.80;99.90;;;;;;5091026;28;20210;-73
2022/05/20 01:08:28;;;;;;;4.53;3.22;;;20.80;99.90;;;;;;5089827;28;20174;-73
2022/05/20 01:10:54;;;;;;;4.20;3.22;;;20.80;99.90;;;;;;5090806;28;20170;-73
2022/05/20 01:13:23;;;;;;;6.28;3.33;;;20.80;99.90;;;;;;5070293;28;20217;-73
2022/05/20 01:15:48;;;;;;;4.63;2.95;;;20.80;99.90;;;;;;5072570;28;20206;-73
2022/05/20 01:18:15;;;;;;;3.13;2.70;;;20.70;99.90;;;;;;5071912;28;20293;-73
2022/05/20 01:20:45;;;;;;;3.15;2.67;;;20.60;99.90;;;;;;5090689;28;20834;-73
2022/05/20 01:23:13;;;;;;;6.90;3.10;;;20.50;99.90;;;;;;5091232;28;20706;-73
2022/05/20 01:25:44;;;;;;;4.32;2.80;;;20.50;99.90;;;;;;5090519;28;20717;-74
2022/05/20 01:28:10;;;;;;;6.55;3.05;;;20.50;99.90;;;;;;5071863;28;20703;-72
2022/05/20 01:30:38;;;;;;;3.53;2.90;;;20.40;99.90;;;;;;5090500;28;20207;-73
2022/05/20 01:33:06;;;;;;;3.75;3.33;;;20.40;99.90;;;;;;5072418;28;20694;-73
2022/05/20 01:35:40;;;;;;;6.40;3.65;;;20.40;99.90;;;;;;5090536;28;20206;-73
2022/05/20 01:38:07;;;;;;;5.72;3.97;;;20.30;99.90;;;;;;5090462;28;20177;-73
2022/05/20 01:40:49;;;;;;;5.60;3.97;;;20.30;99.90;;;;;;5090283;28;20682;-73
2022/05/20 01:43:33;;;;;;;7.78;4.38;;;20.30;99.90;;;;;;5088201;28;20224;-73
2022/05/20 01:46:25;;;;;;;6.00;5.20;;;20.20;99.90;;;;;;5072476;28;20874;-73
2022/05/20 01:49:05;;;;;;;6.53;4.60;;;20.00;99.90;;;;;;5089726;28;20198;-74
2022/05/20 01:51:46;;;;;;;5.53;4.90;;;20.10;99.90;;;;;;5072043;28;20237;-73
2022/05/20 01:54:39;;;;;;;8.45;5.28;;;19.90;99.90;;;;;;5090492;28;20637;-73
2022/05/20 01:57:13;;;;;;;7.53;5.07;;;19.90;99.90;;;;;;5073562;28;20201;-72
2022/05/20 01:59:43;;;;;;;7.82;5.40;;;20.00;99.90;;;;;;5090130;28;20218;-73
2022/05/20 02:02:16;;;;;;;6.00;4.72;;;20.00;99.90;;;;;;5094590;28;20269;-73
2022/05/20 02:04:47;;;;;;;6.55;5.07;;;20.00;99.90;;;;;;5093711;28;20288;-73
2022/05/20 02:07:20;;;;;;;8.48;5.80;;;20.00;99.90;;;;;;5075764;28;20202;-73
2022/05/20 02:10:20;;;;;;;7.15;5.95;;;20.00;99.90;;;;;;5093047;28;20213;-73
2022/05/20 02:12:50;;;;;;;7.57;5.35;;;20.00;99.90;;;;;;5062409;28;20220;-72
2022/05/20 02:15:25;;;;;;;6.75;6.05;;;20.00;99.90;;;;;;5093705;28;20198;-73
2022/05/20 02:17:57;;;;;;;7.30;5.95;;;20.00;99.90;;;;;;5093277;28;20288;-72
2022/05/20 02:20:29;;;;;;;9.15;6.13;;;19.90;99.90;;;;;;5093178;28;20182;-72
2022/05/20 02:23:04;;;;;;;7.53;6.35;;;19.90;99.90;;;;;;5093989;28;20190;-73
2022/05/20 02:25:37;;;;;;;9.90;7.22;;;20.00;99.90;;;;;;5093374;28;20228;-73
2022/05/20 02:28:09;;;;;;;10.45;6.72;;;19.90;99.90;;;;;;5092884;28;20709;-72
2022/05/20 02:30:35;;;;;;;6.70;6.03;;;20.00;99.90;;;;;;5077422;28;20220;-72
2022/05/20 02:33:09;;;;;;;7.60;6.80;;;20.00;99.90;;;;;;5100440;28;20206;-73
2022/05/20 02:35:35;;;;;;;7.78;6.25;;;20.10;99.90;;;;;;5095042;28;20670;-73
2022/05/20 02:38:11;;;;;;;9.63;6.85;;;20.00;99.90;;;;;;5113331;28;20207;-72
2022/05/20 02:40:38;;;;;;;7.53;6.13;;;20.20;99.90;;;;;;5094762;28;20288;-74
2022/05/20 02:43:04;;;;;;;11.63;7.63;;;20.20;99.90;;;;;;5095055;28;20698;-74
2022/05/20 02:45:30;;;;;;;8.48;6.70;;;20.20;99.90;;;;;;5113287;28;20674;-73
2022/05/20 02:47:55;;;;;;;9.18;6.75;;;20.10;99.90;;;;;;5112938;28;20213;-73
2022/05/20 02:50:21;;;;;;;7.60;6.68;;;20.10;99.90;;;;;;5094309;28;20188;-73
2022/05/20 02:52:46;;;;;;;8.68;7.15;;;20.10;99.90;;;;;;5113598;28;20252;-73
2022/05/20 02:55:12;;;;;;;7.43;6.65;;;20.00;99.90;;;;;;5113099;28;20609;-73
2022/05/20 02:57:38;;;;;;;7.95;7.15;;;20.00;99.90;;;;;;5094644;28;20229;-74
2022/05/20 03:05:33;;;;;;;10.73;7.40;;;20.00;99.90;;;;;;5113034;28;20180;-72
2022/05/20 03:07:59;;;;;;;8.43;7.43;;;20.00;99.90;;;;;;5094851;28;20173;-72
2022/05/20 03:10:25;;;;;;;9.27;8.25;;;19.90;99.90;;;;;;5112736;28;20198;-72
2022/05/20 03:12:51;;;;;;;9.35;8.32;;;19.80;99.90;;;;;;5111903;28;20217;-74
2022/05/20 03:15:17;;;;;;;10.93;7.53;;;19.80;99.90;;;;;;5112781;28;20733;-73
2022/05/20 03:17:43;;;;;;;9.85;7.32;;;19.90;99.90;;;;;;5112232;28;20723;-72
2022/05/20 03:20:09;;;;;;;8.65;7.47;;;19.90;99.90;;;;;;5112821;28;20178;-73
2022/05/20 03:22:36;;;;;;;8.88;6.97;;;20.00;99.90;;;;;;5112377;28;20228;-73
2022/05/20 03:25:04;;;;;;;9.05;7.72;;;20.00;99.90;;;;;;5113127;28;20721;-73
2022/05/20 03:27:31;;;;;;;8.60;7.28;;;19.90;99.90;;;;;;5094434;28;20228;-72
2022/05/20 03:29:57;;;;;;;8.30;7.38;;;19.70;99.90;;;;;;5093409;28;20205;-73
2022/05/20 03:32:22;;;;;;;9.02;7.53;;;19.90;99.90;;;;;;5081628;28;20197;-73
2022/05/20 03:34:48;;;;;;;8.48;7.53;;;20.00;99.90;;;;;;5113054;28;20162;-73
2022/05/20 03:37:14;;;;;;;8.27;7.40;;;20.00;99.90;;;;;;5112417;28;20198;-73
2022/05/20 03:39:39;;;;;;;8.75;7.78;;;20.00;99.90;;;;;;5093194;28;20288;-74
2022/05/20 03:42:05;;;;;;;10.20;7.47;;;20.00;99.90;;;;;;5093977;28;20681;-73
2022/05/20 03:44:31;;;;;;;9.02;7.15;;;20.00;99.90;;;;;;5111852;28;20281;-74
2022/05/20 03:46:58;;;;;;;8.55;7.60;;;20.10;99.90;;;;;;5112774;28;20615;-72
2022/05/20 03:49:26;;;;;;;9.65;7.45;;;20.00;99.90;;;;;;5111106;28;20193;-73
2022/05/20 03:51:54;;;;;;;7.38;6.57;;;20.10;99.90;;;;;;5112055;28;20201;-73
2022/05/20 03:54:22;;;;;;;9.07;7.07;;;20.00;99.90;;;;;;5093782;28;20284;-73
2022/05/20 03:56:47;;;;;;;8.80;7.03;;;20.00;99.90;;;;;;5111880;28;20194;-73
2022/05/20 03:59:13;;;;;;;9.15;8.05;;;20.00;99.90;;;;;;5111741;28;20172;-74
2022/05/20 04:01:58;;;;;;;9.05;7.22;;;20.10;99.90;;;;;;5099046;28;20203;-72
2022/05/20 04:04:36;;;;;;;9.85;7.32;;;20.10;99.90;;;;;;5111637;28;20650;-73
2022/05/20 04:07:23;;;;;;;8.73;7.85;;;20.20;99.90;;;;;;5111932;28;20697;-74
2022/05/20 04:09:49;;;;;;;10.43;7.47;;;20.20;99.90;;;;;;5110165;28;20255;-74
2022/05/20 04:12:31;;;;;;;9.77;7.70;;;20.20;99.90;;;;;;5111418;28;20694;-73
2022/05/20 04:14:58;;;;;;;12.27;7.70;;;20.20;99.90;;;;;;5111672;28;20254;-73
2022/05/20 04:17:24;;;;;;;9.88;7.25;;;20.10;99.90;;;;;;5093209;28;20548;-72
2022/05/20 04:19:50;;;;;;;10.27;8.27;;;20.20;99.90;;;;;;5111419;28;20248;-73
2022/05/20 04:22:19;;;;;;;14.35;7.97;;;19.90;99.90;;;;;;5093235;28;20293;-73
2022/05/20 04:24:45;;;;;;;9.43;8.05;;;20.00;99.90;;;;;;5110420;28;20217;-72
2022/05/20 04:27:11;;;;;;;7.97;7.28;;;20.10;99.90;;;;;;5111595;28;20228;-73
2022/05/20 04:29:37;;;;;;;12.05;8.48;;;20.10;99.90;;;;;;5110354;28;20646;-72
2022/05/20 04:32:03;;;;;;;9.05;7.97;;;20.10;99.90;;;;;;5095367;28;20196;-73
2022/05/20 04:34:29;;;;;;;10.23;7.60;;;20.20;99.90;;;;;;5111027;28;20193;-73
2022/05/20 04:36:55;;;;;;;10.90;8.90;;;20.30;99.90;;;;;;5111435;28;20280;-73
2022/05/20 04:39:20;;;;;;;9.27;8.38;;;20.20;99.90;;;;;;5110624;28;20238;-72
2022/05/20 04:47:19;;;;;;;9.43;8.07;;;20.40;99.90;;;;;;5111692;28;20302;-74
2022/05/20 04:49:44;;;;;;;9.55;8.38;;;20.40;99.90;;;;;;5094191;28;20213;-74
2022/05/20 04:52:10;;;;;;;9.05;7.65;;;20.50;99.90;;;;;;5090944;28;20214;-74
2022/05/20 04:54:50;;;;;;;9.10;8.07;;;20.60;99.90;;;;;;5072767;28;20230;-74
2022/05/20 04:57:22;;;;;;;9.52;8.52;;;20.70;99.90;;;;;;5072882;28;20594;-74
2022/05/20 04:59:48;;;;;;;10.43;8.80;;;20.60;99.90;;;;;;5072119;28;20226;-73
2022/05/20 05:02:13;;;;;;;12.00;9.15;;;20.60;99.90;;;;;;5073165;28;20205;-73
2022/05/20 05:04:39;;;;;;;9.65;8.40;;;20.40;99.90;;;;;;5090478;28;20214;-73
2022/05/20 05:07:09;;;;;;;12.13;9.75;;;20.40;99.90;;;;;;5090930;28;20191;-72
2022/05/20 05:09:34;;;;;;;11.52;9.52;;;20.40;99.90;;;;;;5090142;28;20281;-73
2022/05/20 05:12:00;;;;;;;12.35;9.18;;;20.40;99.90;;;;;;5090442;28;20297;-73
2022/05/20 05:14:25;;;;;;;11.45;9.18;;;20.70;99.90;;;;;;5090605;28;20642;-72
2022/05/20 05:16:51;;;;;;;9.68;8.50;;;21.30;99.90;;;;;;5073731;28;20162;-73
2022/05/20 05:19:16;;;;;;;9.20;8.30;;;22.80;99.90;;;;;;5090763;28;20224;-73
2022/05/20 05:21:42;;;;;;;10.85;9.15;;;22.50;99.90;;;;;;5090607;28;20255;-72
2022/05/20 05:24:07;;;;;;;8.77;7.88;;;22.40;99.90;;;;;;5090487;28;20267;-72
2022/05/20 05:26:34;;;;;;;8.63;7.82;;;22.30;99.90;;;;;;5072410;28;20171;-73
2022/05/20 05:29:00;;;;;;;10.15;8.95;;;22.40;99.90;;;;;;5090330;28;20163;-73
2022/05/20 05:31:26;;;;;;;9.93;8.43;;;22.80;99.90;;;;;;5090276;28;20263;-73
2022/05/20 05:33:53;;;;;;;8.43;7.53;;;24.10;99.90;;;;;;5090504;28;20202;-74
2022/05/20 05:36:19;;;;;;;7.97;7.13;;;24.30;99.90;;;;;;5093788;28;20742;-74
2022/05/20 05:38:46;;;;;;;9.68;8.05;;;24.20;99.90;;;;;;5093493;28;20206;-73
2022/05/20 05:41:12;;;;;;;12.07;8.27;;;23.30;99.90;;;;;;5076267;28;20194;-73
2022/05/20 05:43:37;;;;;;;10.02;9.02;;;23.10;99.90;;;;;;5093961;28;20289;-74
2022/05/20 05:46:03;;;;;;;10.77;8.35;;;22.70;99.90;;;;;;5094292;28;20771;-74
2022/05/20 05:48:28;;;;;;;12.52;8.27;;;23.10;99.90;;;;;;5093381;28;20198;-74
2022/05/20 05:50:55;;;;;;;11.32;8.60;;;23.00;99.90;;;;;;5094229;28;20206;-73
2022/05/20 05:53:24;;;;;;;10.02;8.98;;;22.70;99.90;;;;;;5075722;28;20257;-73
2022/05/20 05:55:56;;;;;;;9.02;8.13;;;22.70;99.90;;;;;;5076310;28;20250;-74
2022/05/20 05:58:22;;;;;;;10.77;9.65;;;22.40;99.90;;;;;;5074785;28;20202;-73
2022/05/20 06:00:47;;;;;;;10.35;8.70;;;22.50;99.90;;;;;;5093938;28;20705;-73
2022/05/20 06:03:15;;;;;;;10.02;9.10;;;22.50;99.90;;;;;;5093861;28;20221;-73
2022/05/20 06:05:41;;;;;;;11.18;9.95;;;22.10;99.90;;;;;;5075440;28;20206;-73
2022/05/20 06:08:07;;;;;;;11.52;9.63;;;22.10;99.90;;;;;;5075300;28;20649;-73
2022/05/20 06:10:33;;;;;;;14.75;8.27;;;21.90;99.90;;;;;;5093454;28;20195;-74
2022/05/20 06:12:58;;;;;;;11.13;9.65;;;22.10;99.90;;;;;;5145842;22;20224;-76
2022/05/20 06:15:24;;;;;;;10.70;9.45;;;21.70;99.90;;;;;;5134503;27;20680;-75
2022/05/20 06:17:51;;;;;;;10.85;9.45;;;21.70;99.90;;;;;;5115976;27;20340;-75
2022/05/20 06:20:18;;;;;;;13.88;9.10;;;21.80;99.90;;;;;;5134384;27;20569;-78
2022/05/20 06:22:43;;;;;;;12.15;9.13;;;22.00;99.90;;;;;;5134888;27;20208;-78
2022/05/20 06:25:10;;;;;;;13.05;9.55;;;22.30;99.90;;;;;;5134471;27;20227;-77
2022/05/20 06:27:36;;;;;;;10.15;9.15;;;22.10;99.90;;;;;;5135558;27;20271;-78
2022/05/20 06:30:04;;;;;;;8.82;7.93;;;23.70;99.90;;;;;;5135003;27;20209;-78
2022/05/20 06:32:30;;;;;;;9.38;7.60;;;24.00;99.90;;;;;;5117331;27;20287;-77
2022/05/20 06:40:24;;;;;;;10.38;9.27;;;24.70;99.90;;;;;;5133836;27;20203;-77
2022/05/20 06:42:50;;;;;;;10.48;8.38;;;24.20;99.90;;;;;;5133966;27;20205;-78
2022/05/20 06:45:16;;;;;;;13.18;8.43;;;23.90;99.90;;;;;;5134126;27;20590;-77
2022/05/20 06:47:42;;;;;;;14.30;8.88;;;25.20;99.90;;;;;;5114409;27;20204;-77
2022/05/20 06:50:10;;;;;;;11.85;7.78;;;26.00;99.90;;;;;;5133614;27;20638;-77
2022/05/20 06:52:35;;;;;;;15.65;8.23;;;26.20;99.90;;;;;;5133298;27;20247;-77
2022/05/20 06:55:02;;;;;;;13.30;7.32;;;27.30;99.90;;;;;;5133770;27;20228;-77
2022/05/20 06:57:28;;;;;;;12.80;7.32;;;28.70;99.90;;;;;;5132362;27;20208;-77
2022/05/20 06:59:53;;;;;;;18.13;6.85;;;29.50;99.90;;;;;;5126076;27;20218;-78
2022/05/20 07:02:19;;;;;;;22.38;6.97;;;30.60;99.90;;;;;;5134990;27;20241;-78
2022/05/20 07:04:45;;;;;;;9.07;4.93;;;31.60;99.90;;;;;;5134598;27;20232;-78
2022/05/20 07:07:10;;;;;;;9.77;5.43;;;32.10;99.90;;;;;;5134173;27;20212;-79
2022/05/20 07:09:36;;;;;;;11.25;4.97;;;31.70;99.90;;;;;;5133756;27;20208;-82
2022/05/20 07:12:03;;;;;;;13.30;5.47;;;30.70;99.90;;;;;;5132823;27;20219;-78
2022/05/20 07:14:30;;;;;;;8.75;4.82;;;31.70;99.90;;;;;;5128418;27;20724;-77
2022/05/20 07:16:55;;;;;;;7.18;4.57;;;32.00;99.90;;;;;;5104509;27;20544;-76
2022/05/20 07:19:21;;;;;;;16.90;5.72;;;32.20;99.90;;;;;;5123363;27;20202;-77
2022/05/20 07:21:47;;;;;;;7.45;5.07;;;31.90;99.90;;;;;;5112517;28;20584;-76
2022/05/20 07:24:12;;;;;;;6.70;4.47;;;32.30;99.90;;;;;;5125031;27;20249;-77
2022/05/20 07:26:39;;;;;;;4.90;4.50;;;31.40;99.90;;;;;;5114487;27;20212;-77
2022/05/20 07:29:06;;;;;;;8.68;4.88;;;30.30;99.90;;;;;;5115699;27;20677;-77
2022/05/20 07:31:31;;;;;;;6.35;4.35;;;29.40;99.90;;;;;;5131178;27;20233;-77
2022/05/20 07:33:57;;;;;;;5.40;4.25;;;30.20;99.90;;;;;;5094333;28;20247;-78
2022/05/20 07:36:23;;;;;;;7.85;4.32;;;31.10;99.90;;;;;;5112684;28;20212;-77
2022/05/20 07:38:50;;;;;;;6.82;4.43;;;32.20;99.90;;;;;;5111671;28;20197;-77
2022/05/20 07:41:17;;;;;;;5.65;4.68;;;31.80;99.90;;;;;;5094601;28;20174;-77
2022/05/20 07:43:42;;;;;;;5.25;4.75;;;32.10;99.90;;;;;;5094270;28;20649;-77
2022/05/20 07:46:08;;;;;;;13.43;5.07;;;31.90;99.90;;;;;;5113284;27;20292;-77
2022/05/20 07:48:34;;;;;;;12.65;4.68;;;32.60;99.90;;;;;;5113729;27;20232;-78
2022/05/20 07:51:06;;;;;;;7.25;3.67;;;32.80;99.50;;;;;;5133460;27;20193;-78
2022/05/20 07:53:39;;;;;;;5.75;4.15;;;33.90;98.40;;;;;;5132961;27;20200;-78
2022/05/20 07:56:19;;;;;;;17.40;4.65;;;34.90;96.00;;;;;;5133516;27;20243;-77
2022/05/20 07:59:08;;;;;;;6.00;3.88;;;33.50;95.50;;;;;;5131971;27;20745;-77
2022/05/20 08:01:37;;;;;;;4.00;3.60;;;33.30;96.00;;;;;;5114399;27;20266;-77
2022/05/20 08:07:13;;;;;;;4.75;3.78;;;33.20;94.70;;;;;;5123098;27;20701;-77
2022/05/20 08:09:39;;;;;;;5.55;3.85;;;33.50;94.80;;;;;;5112911;27;20200;-77
2022/05/20 08:12:05;;;;;;;6.82;3.78;;;33.70;94.30;;;;;;5132125;27;20258;-78
2022/05/20 08:14:30;;;;;;;4.75;3.60;;;32.10;94.70;;;;;;5132116;27;20211;-77
2022/05/20 08:17:01;;;;;;;5.32;3.90;;;32.20;95.80;;;;;;5114284;27;20272;-77
2022/05/20 08:19:27;;;;;;;5.28;3.45;;;33.00;95.00;;;;;;5130642;27;20201;-78
2022/05/20 08:21:53;;;;;;;6.32;3.20;;;33.80;94.50;;;;;;5132266;27;20580;-77
2022/05/20 08:24:19;;;;;;;3.20;2.90;;;34.00;93.90;;;;;;5097596;28;20211;-77
2022/05/20 08:26:44;;;;;;;6.00;2.85;;;34.10;92.50;;;;;;5111693;28;20208;-77
2022/05/20 08:29:13;;;;;;;4.30;3.47;;;34.00;92.10;;;;;;5111670;28;20204;-77
2022/05/20 08:31:39;;;;;;;3.67;2.63;;;34.20;91.80;;;;;;5131081;27;20276;-77
2022/05/20 08:34:05;;;;;;;6.55;2.80;;;33.40;92.50;;;;;;5131941;27;20214;-77
2022/05/20 08:36:31;;;;;;;5.07;3.08;;;33.50;91.80;;;;;;5131649;27;20284;-77
2022/05/20 08:38:57;;;;;;;4.22;2.30;;;33.00;92.10;;;;;;5131151;27;20197;-77
2022/05/20 08:41:27;;;;;;;6.00;2.60;;;32.90;92.20;;;;;;5131438;27;20164;-77
2022/05/20 08:43:53;;;;;;;4.75;3.08;;;32.60;92.10;;;;;;5125240;27;20201;-77
2022/05/20 08:46:22;;;;;;;11.60;4.05;;;32.00;93.50;;;;;;5113353;27;20588;-76
2022/05/20 08:48:52;;;;;;;7.20;3.13;;;32.20;94.40;;;;;;5095972;28;20624;-76
2022/05/20 08:51:18;;;;;;;5.55;3.13;;;32.10;94.20;;;;;;5100689;28;20284;-76
2022/05/20 08:53:46;;;;;;;5.55;3.30;;;32.00;93.80;;;;;;5108940;28;20681;-76
2022/05/20 08:56:14;;;;;;;5.63;3.60;;;31.70;94.30;;;;;;5109913;28;20170;-76
2022/05/20 08:59:02;;;;;;;7.88;3.63;;;31.90;94.60;;;;;;5103055;28;20623;-76
2022/05/20 09:01:32;;;;;;;6.95;2.58;;;31.20;93.90;;;;;;5126351;28;20197;-77
2022/05/20 09:03:58;;;;;;;6.72;3.60;;;31.50;95.50;;;;;;5113414;28;20205;-78
2022/05/20 09:06:25;;;;;;;4.13;2.63;;;31.70;94.20;;;;;;5115577;28;20213;-79
2022/05/20 09:09:13;;;;;;;3.42;3.03;;;31.30;95.00;;;;;;5119524;28;20255;-78
2022/05/20 09:11:41;;;;;;;5.43;3.22;;;31.00;94.20;;;;;;5117454;27;20242;-73
2022/05/20 09:17:18;;;;;;;4.63;3.55;;;31.00;94.30;;;;;;5127908;27;20227;-77
2022/05/20 09:20:02;;;;;;;6.95;3.33;;;31.70;93.40;;;;;;5108750;28;20218;-75
2022/05/20 09:22:36;;;;;;;4.18;2.92;;;31.60;93.10;;;;;;5098050;28;20205;-75
2022/05/20 09:25:14;;;;;;;5.90;4.35;;;31.50;94.00;;;;;;5114545;28;20566;-77
2022/05/20 09:27:40;;;;;;;7.20;3.33;;;31.00;94.70;;;;;;5115021;28;20220;-76
2022/05/20 09:30:10;;;;;;;4.15;3.00;;;31.20;94.60;;;;;;5098711;28;20206;-75
2022/05/20 09:32:45;;;;;;;4.53;3.05;;;30.90;94.20;;;;;;5095977;28;20200;-74
2022/05/20 09:35:14;;;;;;;4.47;2.83;;;30.50;95.20;;;;;;5096878;28;20165;-74
2022/05/20 09:37:39;;;;;;;4.70;2.78;;;29.80;95.10;;;;;;5113898;28;20342;-76
2022/05/20 09:40:31;;;;;;;5.32;2.30;;;29.90;95.60;;;;;;5095083;28;20314;-77
2022/05/20 09:43:05;;;;;;;2.92;2.42;;;29.70;93.70;;;;;;5121734;27;20204;-76
2022/05/20 09:45:41;;;;;;;3.50;2.65;;;30.00;94.20;;;;;;5135313;27;20708;-75
2022/05/20 09:48:07;;;;;;;3.03;2.65;;;29.60;94.60;;;;;;5109294;28;20228;-73
2022/05/20 09:50:34;;;;;;;6.65;2.65;;;29.30;95.20;;;;;;5114861;27;20292;-74
2022/05/20 09:53:13;;;;;;;3.92;2.65;;;28.80;95.80;;;;;;5135426;27;20185;-75
2022/05/20 09:55:44;;;;;;;16.73;10.63;;;28.70;95.40;;;;;;5116561;27;20227;-74
2022/05/20 09:58:19;;;;;;;11.43;7.35;;;29.00;96.40;;;;;;5115861;27;20196;-74
2022/05/20 10:01:01;;;;;;;6.45;2.53;;;29.30;95.90;;;;;;5134808;27;20695;-76
2022/05/20 10:03:34;;;;;;;5.20;2.30;;;29.20;95.60;;;;;;5122113;27;20216;-81
2022/05/20 10:06:12;;;;;;;3.75;2.55;;;29.30;95.70;;;;;;5119067;27;20280;-78
2022/05/20 10:08:46;;;;;;;2.78;2.33;;;29.00;95.00;;;;;;5116186;27;20219;-79
2022/05/20 10:11:24;;;;;;;3.80;2.42;;;29.20;95.60;;;;;;5120566;27;20173;-76
2022/05/20 10:14:11;;;;;;;2.97;2.28;;;29.20;95.60;;;;;;5100622;27;20223;-76
2022/05/20 10:17:08;;;;;;;5.80;2.60;;;29.30;95.10;;;;;;5133890;27;20299;-75
2022/05/20 10:20:22;;;;;;;2.63;2.00;;;29.20;95.00;;;;;;5132327;27;20200;-74
2022/05/20 10:23:11;;;;;;;4.50;2.65;;;29.10;93.10;;;;;;5099321;27;20276;-76
2022/05/20 10:25:56;;;;;;;3.55;2.70;;;28.50;94.90;;;;;;5114992;27;20209;-75
2022/05/20 10:34:25;;;;;;;2.83;1.90;;;28.30;94.00;;;;;;5125452;27;20207;-74
2022/05/20 10:36:51;;;;;;;2.55;2.08;;;28.30;94.10;;;;;;5135483;27;20197;-78
2022/05/20 10:39:42;;;;;;;3.80;2.17;;;28.40;94.10;;;;;;5117045;27;20696;-79
2022/05/20 10:42:48;;;;;;;4.43;2.25;;;28.50;94.20;;;;;;5104616;27;20658;-78
2022/05/20 10:48:44;;;;;;;2.80;2.10;;;28.00;94.40;;;;;;5116333;27;20716;-76
2022/05/20 10:51:35;;;;;;;4.00;2.25;;;28.20;94.70;;;;;;5105666;28;20595;-73
2022/05/20 10:54:22;;;;;;;4.40;1.98;;;28.20;95.20;;;;;;5118813;27;20688;-73
2022/05/20 10:57:05;;;;;;;5.53;2.55;;;28.00;94.90;;;;;;5096764;27;20214;-73
2022/05/20 11:00:08;;;;;;;4.30;2.20;;;27.90;95.20;;;;;;5112163;27;20177;-77
2022/05/20 11:02:42;;;;;;;3.50;2.33;;;28.00;95.60;;;;;;5114024;27;20219;-75
2022/05/20 11:05:46;;;;;;;3.05;2.17;;;28.30;95.50;;;;;;5133095;27;20196;-75
2022/05/20 11:08:22;;;;;;;4.85;2.70;;;28.20;95.80;;;;;;5105284;27;20197;-75
2022/05/20 11:11:03;;;;;;;3.67;2.38;;;27.90;96.10;;;;;;5116353;27;20207;-75
2022/05/20 11:13:51;;;;;;;3.75;2.65;;;27.80;95.60;;;;;;5133174;27;20223;-77
2022/05/20 11:16:51;;;;;;;5.20;3.72;;;28.00;96.50;;;;;;5115184;27;20201;-77
2022/05/20 11:19:34;;;;;;;3.53;3.22;;;28.20;96.70;;;;;;5123711;27;20284;-74
2022/05/20 11:22:17;;;;;;;6.55;2.75;;;28.30;97.20;;;;;;5120274;27;20200;-77
2022/05/20 11:24:49;;;;;;;4.03;2.75;;;28.50;97.20;;;;;;5133053;27;20212;-75
2022/05/20 11:27:40;;;;;;;3.33;2.70;;;28.10;97.40;;;;;;5115012;27;20200;-73
2022/05/20 11:30:13;;;;;;;5.80;2.70;;;28.00;97.90;;;;;;5121886;27;20211;-74
2022/05/20 11:33:16;;;;;;;2.90;2.70;;;28.30;98.30;;;;;;5132458;27;20267;-74
2022/05/20 11:36:07;;;;;;;6.05;2.60;;;28.40;98.60;;;;;;5129977;27;20208;-76
2022/05/20 11:38:56;;;;;;;3.88;2.35;;;28.50;98.00;;;;;;5111945;27;20264;-77
2022/05/20 11:41:26;;;;;;;4.50;2.35;;;28.50;97.70;;;;;;5133605;27;20214;-77
2022/05/20 11:44:22;;;;;;;4.22;2.63;;;28.40;97.30;;;;;;5114759;27;20197;-76
2022/05/20 11:47:25;;;;;;;2.97;2.67;;;27.90;98.00;;;;;;5117024;27;20235;-75
2022/05/20 11:50:19;;;;;;;5.03;2.50;;;28.10;98.00;;;;;;5117674;27;20776;-73
2022/05/20 11:53:01;;;;;;;5.63;2.60;;;27.90;97.40;;;;;;5132794;27;20213;-78
2022/05/20 11:55:40;;;;;;;4.90;2.30;;;28.00;97.60;;;;;;5114375;27;20203;-77
2022/05/20 11:58:11;;;;;;;3.92;2.70;;;28.20;97.90;;;;;;5132354;27;20696;-75
2022/05/20 12:00:40;;;;;;;4.13;2.60;;;28.30;97.40;;;;;;5087881;27;20226;-77
2022/05/20 12:03:13;;;;;;;4.35;2.30;;;28.20;97.60;;;;;;5123381;27;20228;-76
2022/05/20 12:05:41;;;;;;;4.20;2.33;;;28.00;97.20;;;;;;5128193;27;20213;-76
2022/05/20 12:08:08;;;;;;;4.72;2.25;;;27.20;97.70;;;;;;5132702;27;20177;-75
2022/05/20 12:10:49;;;;;;;2.45;2.20;;;27.10;97.40;;;;;;5132134;27;20579;-75
2022/05/20 12:13:26;;;;;;;2.42;2.22;;;27.20;98.00;;;;;;5136769;22;20225;-74
2022/05/20 12:16:15;;;;;;;3.15;2.20;;;27.50;99.90;;;;;;5104942;28;20947;-72
2022/05/20 12:24:50;;;;;;;1.58;1.40;;;27.50;96.70;;;;;;5087021;28;20279;-71
2022/05/20 12:27:24;;;;;;;3.20;1.80;;;27.20;95.40;;;;;;5095904;28;20203;-70
2022/05/20 12:30:07;;;;;;;2.88;1.90;;;27.20;97.00;;;;;;5069657;28;20206;-71
2022/05/20 12:32:35;;;;;;;2.30;1.88;;;27.00;97.00;;;;;;5095026;28;20667;-71
2022/05/20 12:35:09;;;;;;;2.63;2.13;;;27.10;96.90;;;;;;5093573;28;20984;-72
2022/05/20 12:37:56;;;;;;;4.38;2.42;;;27.30;98.30;;;;;;5094241;28;20198;-73
2022/05/20 12:40:28;;;;;;;3.63;1.40;;;27.20;98.80;;;;;;5075098;28;20605;-72
2022/05/20 12:43:02;;;;;;;2.05;1.55;;;27.20;94.40;;;;;;5095575;28;20210;-75
2022/05/20 12:45:33;;;;;;;4.07;1.60;;;27.20;93.50;;;;;;5093129;28;20213;-74
2022/05/20 12:47:59;;;;;;;1.42;1.33;;;27.20;92.20;;;;;;5093618;28;20202;-69
2022/05/20 12:50:27;;;;;;;2.30;1.30;;;27.00;91.90;;;;;;5092891;28;20212;-75
2022/05/20 12:52:59;;;;;;;2.85;1.50;;;27.00;91.80;;;;;;5074479;28;20198;-75
2022/05/20 12:55:38;;;;;;;3.45;1.80;;;27.00;93.50;;;;;;5093962;28;20255;-75
2022/05/20 12:58:07;;;;;;;2.10;1.60;;;27.00;93.70;;;;;;5091457;28;20622;-75
2022/05/20 13:00:41;;;;;;;6.07;2.25;;;27.00;95.10;;;;;;5074947;28;20634;-76
2022/05/20 13:03:30;;;;;;;1.65;1.48;;;27.00;95.50;;;;;;5093113;28;20209;-76
2022/05/20 13:06:09;;;;;;;1.60;1.10;;;27.10;94.40;;;;;;5068560;28;20293;-74
2022/05/20 13:08:51;;;;;;;2.15;1.38;;;27.10;92.00;;;;;;5092701;28;20220;-74
2022/05/20 13:11:20;;;;;;;2.17;1.40;;;27.20;91.20;;;;;;5095163;28;20527;-74
2022/05/20 13:13:49;;;;;;;1.55;1.40;;;27.20;91.10;;;;;;5093528;28;20245;-74
2022/05/20 13:16:15;;;;;;;2.45;1.10;;;27.30;91.20;;;;;;5090423;28;20289;-74
2022/05/20 13:18:43;;;;;;;2.17;1.45;;;27.30;90.60;;;;;;5088836;28;20206;-73
2022/05/20 13:21:21;;;;;;;2.72;1.45;;;27.30;91.40;;;;;;5089446;28;20213;-75
2022/05/20 13:23:54;;;;;;;4.18;2.47;;;27.30;91.90;;;;;;5089621;28;20234;-75
2022/05/20 13:26:27;;;;;;;1.75;1.42;;;27.50;92.20;;;;;;5090472;28;20185;-73
2022/05/20 13:28:59;;;;;;;4.20;1.48;;;27.60;92.60;;;;;;5073428;28;20174;-73
2022/05/20 13:31:25;;;;;;;2.35;1.55;;;27.80;93.20;;;;;;5091167;28;20210;-72
2022/05/20 13:33:51;;;;;;;3.00;1.35;;;28.00;92.60;;;;;;5089634;28;20209;-73
2022/05/20 13:36:21;;;;;;;3.50;1.30;;;28.00;92.20;;;;;;5090138;28;20198;-75
2022/05/20 13:38:59;;;;;;;3.17;1.50;;;28.00;91.50;;;;;;5089441;28;20727;-76
2022/05/20 13:41:27;;;;;;;2.75;1.38;;;27.80;91.10;;;;;;5090337;28;20170;-76
2022/05/20 13:43:55;;;;;;;3.03;1.27;;;27.60;91.30;;;;;;5090398;28;20300;-75
2022/05/20 13:49:15;;;;;;;1.40;1.30;;;27.70;90.80;;;;;;5095330;28;20212;-75